Latest Coastal Weather Observations for Bougainville Reef

IDQ60701

Issued at 10:31 am EST Friday 31 March 2017 (issued every 10 minutes, with the page automatically refreshed every 10 minutes)

About coastal observations | Map of coastal stations | Coastal observations for QLD | Marine services | Other Formats
Station Details ID: 200840 Name: BOUGAINVILLE REEF Lat: -15.49 Lon: 147.12 Height: 0.0 m
Data from the previous 72 hours. | See also: Recent months for locations in Queensland
Date/Time
EST
Temp
°C
Wind Pressure Rain since
9am
mm
Weather Cloud Vis
km
Sea
Height
m
Swell
Dir  Spd
kts
Gust
kts
hPa Trend Height
m
Period
s
Dir
31/10:30am 29.7 NNW 13 14 1010.4 - - - - - - - - -
31/10:00am 29.7 NNW 11 13 1010.6 - - - - - - - - -
31/09:30am 29.7 NW 11 12 1010.6 - - - - - - - - -
31/09:00am 29.7 NW 11 13 1010.3 - - - - - - - - -
31/08:30am 29.7 NNW 11 12 1010.3 - - - - - - - - -
31/08:00am 29.5 NW 10 11 1009.8 - - - - - - - - -
31/07:30am 29.3 NW 9 11 1009.7 - - - - - - - - -
31/07:00am 29.1 NW 10 12 1009.3 - - - - - - - - -
31/06:30am 29.0 NW 10 11 1009.0 - - - - - - - - -
31/06:00am 29.1 NW 12 12 1008.2 - - - - - - - - -
31/05:30am 29.0 NW 13 14 1008.1 - - - - - - - - -
31/05:00am 29.1 WNW 12 15 1008.1 - - - - - - - - -
31/04:30am 29.1 WNW 12 13 1008.2 - - - - - - - - -
31/04:00am 29.0 NW 11 13 1008.0 - - - - - - - - -
31/03:30am 29.2 WNW 13 15 1008.0 - - - - - - - - -
31/03:00am 29.1 NW 14 16 1008.2 - - - - - - - - -
31/02:30am 29.1 NW 14 15 1008.5 - - - - - - - - -
31/02:00am 29.0 NW 15 16 1008.9 - - - - - - - - -
31/01:30am 29.2 NNW 13 15 1009.5 - - - - - - - - -
31/01:00am 29.2 NW 14 15 1009.5 - - - - - - - - -
31/12:30am 29.3 NW 13 15 1010.0 - - - - - - - - -
31/12:00am 29.4 NW 10 14 1010.2 - - - - - - - - -
 
Date/Time
EST
Temp
°C
Wind Pressure Rain since
9am
mm
Weather Cloud Vis
km
Sea
Height
m
Swell
Dir  Spd
kts
Gust
kts
hPa Trend Height
m
Period
s
Dir
30/11:30pm 29.3 NW 11 12 1010.5 - - - - - - - - -
30/11:00pm 29.4 NW 10 11 1010.5 - - - - - - - - -
30/10:30pm 29.4 WNW 12 13 1010.7 - - - - - - - - -
30/10:00pm 29.4 NNW 11 12 1010.3 - - - - - - - - -
30/09:30pm 29.4 NW 10 11 1010.4 - - - - - - - - -
30/09:00pm 29.6 NNW 11 11 1010.1 - - - - - - - - -
30/08:30pm 29.5 NW 10 11 1009.9 - - - - - - - - -
30/08:00pm 29.4 NW 10 11 1009.4 - - - - - - - - -
30/07:30pm 29.4 NW 10 11 1009.3 - - - - - - - - -
30/07:00pm 29.4 NW 12 14 1009.0 - - - - - - - - -
30/06:30pm 29.5 NNW 12 13 1008.8 - - - - - - - - -
30/06:00pm 29.8 NW 12 15 1008.2 - - - - - - - - -
30/05:30pm 29.9 NNW 12 14 1007.8 - - - - - - - - -
30/05:00pm 30.0 NNW 13 14 1007.8 - - - - - - - - -
30/04:30pm 30.2 NNW 13 15 1007.5 - - - - - - - - -
30/04:00pm 29.9 NNW 14 16 1007.5 - - - - - - - - -
30/03:30pm 30.1 NNW 13 15 1007.6 - - - - - - - - -
30/03:00pm 30.0 NNW 14 17 1007.9 - - - - - - - - -
30/02:30pm 30.0 NNW 15 17 1008.2 - - - - - - - - -
30/02:00pm 29.8 NNW 15 17 1008.8 - - - - - - - - -
30/01:30pm 29.9 NNW 15 17 1009.1 - - - - - - - - -
30/01:00pm 29.9 NNW 15 16 1009.5 - - - - - - - - -
30/12:30pm 29.8 N 16 17 1009.8 - - - - - - - - -
30/12:00pm 29.9 NNW 14 18 1010.3 - - - - - - - - -
30/11:30am 29.8 NNW 14 16 1010.8 - - - - - - - - -
30/11:00am 29.7 N 14 16 1011.0 - - - - - - - - -
30/10:30am 29.9 N 15 18 1011.3 - - - - - - - - -
30/10:00am 29.9 N 15 17 1011.6 - - - - - - - - -
30/09:30am 29.8 N 15 17 1011.7 - - - - - - - - -
30/09:00am 29.9 N 16 18 1011.5 - - - - - - - - -
30/08:30am 29.7 NNW 15 16 1011.7 - - - - - - - - -
30/08:00am 29.7 NNW 15 17 1011.2 - - - - - - - - -
30/07:30am 29.5 NNW 15 17 1011.2 - - - - - - - - -
30/07:00am 29.5 N 16 19 1010.5 - - - - - - - - -
30/06:30am 29.5 N 17 19 1010.2 - - - - - - - - -
30/06:00am 29.3 NNW 19 21 1009.6 - - - - - - - - -
30/05:30am 29.3 NNW 18 21 1009.3 - - - - - - - - -
30/05:00am 29.3 NNW 18 21 1009.0 - - - - - - - - -
30/04:30am 29.3 NNW 19 22 1008.8 - - - - - - - - -
30/04:00am 29.3 NNW 20 21 1008.5 - - - - - - - - -
30/03:30am 29.3 NNW 20 23 1008.4 - - - - - - - - -
30/03:00am 29.3 NNW 19 22 1008.5 - - - - - - - - -
30/02:30am 29.3 NNW 19 22 1008.6 - - - - - - - - -
30/02:00am 29.4 NNW 20 23 1008.7 - - - - - - - - -
30/01:30am 29.4 NNW 19 23 1008.7 - - - - - - - - -
30/01:00am 29.5 NNW 21 24 1009.1 - - - - - - - - -
30/12:30am 29.6 NNW 21 24 1009.2 - - - - - - - - -
30/12:00am 29.5 NNW 19 22 1009.5 - - - - - - - - -
 
Date/Time
EST
Temp
°C
Wind Pressure Rain since
9am
mm
Weather Cloud Vis
km
Sea
Height
m
Swell
Dir  Spd
kts
Gust
kts
hPa Trend Height
m
Period
s
Dir
29/11:30pm 29.5 NNW 19 22 1009.7 - - - - - - - - -
29/11:00pm 29.6 NNW 17 21 1009.6 - - - - - - - - -
29/10:30pm 29.6 NNW 17 20 1009.7 - - - - - - - - -
29/10:00pm 29.6 NNW 19 22 1009.6 - - - - - - - - -
29/09:30pm 29.8 NNW 19 21 1009.6 - - - - - - - - -
29/09:00pm 29.7 NNW 20 22 1009.3 - - - - - - - - -
29/08:30pm 29.7 NNW 18 21 1008.9 - - - - - - - - -
29/08:00pm 29.6 NNW 18 22 1008.3 - - - - - - - - -
29/07:30pm 29.6 NNW 18 23 1007.9 - - - - - - - - -
29/07:00pm 29.8 NNW 19 22 1007.3 - - - - - - - - -
29/06:30pm 29.7 NNW 19 22 1007.0 - - - - - - - - -
29/06:00pm 29.9 NNW 21 25 1006.0 - - - - - - - - -
29/05:30pm 29.9 NW 20 24 1005.9 - - - - - - - - -
29/05:00pm 30.0 NNW 21 25 1005.8 - - - - - - - - -
29/04:30pm 30.1 NNW 21 24 1005.7 - - - - - - - - -
29/04:00pm 30.0 NNW 20 23 1005.4 - - - - - - - - -
29/03:30pm 30.1 NNW 19 22 1005.2 - - - - - - - - -
29/03:00pm 30.2 NNW 20 24 1005.4 - - - - - - - - -
29/02:30pm 30.0 NNW 20 23 1005.6 - - - - - - - - -
29/02:00pm 30.0 NNW 20 24 1005.8 - - - - - - - - -
29/01:30pm 30.0 NNW 22 25 1006.1 - - - - - - - - -
29/01:00pm 30.0 NNW 21 24 1006.4 - - - - - - - - -
29/12:30pm 30.0 NNW 20 22 1006.8 - - - - - - - - -
29/12:00pm 30.0 NW 19 24 1007.4 - - - - - - - - -
29/11:30am 30.1 NNW 21 24 1007.5 - - - - - - - - -
29/11:00am 30.1 NNW 22 25 1007.9 - - - - - - - - -
29/10:30am 30.0 NNW 21 24 1007.9 - - - - - - - - -
29/10:00am 30.1 NNW 20 25 1007.9 - - - - - - - - -
29/09:30am 30.0 NNW 20 23 1007.9 - - - - - - - - -
29/09:00am 30.1 NNW 23 25 1007.9 - - - - - - - - -
29/08:30am 29.8 NNW 21 25 1007.6 - - - - - - - - -
29/08:00am 29.7 NNW 22 24 1007.0 - - - - - - - - -
29/07:30am 29.6 NNW 20 25 1006.9 - - - - - - - - -
29/07:00am 29.4 NNW 21 25 1006.2 - - - - - - - - -
29/06:30am 29.5 NNW 22 26 1006.0 - - - - - - - - -
29/06:00am 29.5 NNW 23 27 1005.4 - - - - - - - - -
29/05:30am 29.5 NNW 24 27 1005.3 - - - - - - - - -
29/05:00am 29.5 NNW 24 27 1005.2 - - - - - - - - -
29/04:30am 29.4 NNW 24 27 1005.1 - - - - - - - - -
29/04:00am 29.5 NNW 24 28 1004.8 - - - - - - - - -
29/03:30am 29.4 NNW 22 25 1004.8 - - - - - - - - -
29/03:00am 29.3 NNW 24 28 1005.2 - - - - - - - - -
29/02:30am 29.3 NNW 24 27 1005.1 - - - - - - - - -
29/02:00am 29.3 NNW 25 28 1005.5 - - - - - - - - -
29/01:30am 29.3 NNW 26 30 1005.4 - - - - - - - - -
29/01:00am 29.3 NNW 27 31 1005.5 - - - - - - - - -
29/12:30am 29.4 NNW 27 30 1005.6 - - - - - - - - -
29/12:00am 29.5 NNW 26 31 1005.9 - - - - - - - - -
 
Date/Time
EST
Temp
°C
Wind Pressure Rain since
9am
mm
Weather Cloud Vis
km
Sea
Height
m
Swell
Dir  Spd
kts
Gust
kts
hPa Trend Height
m
Period
s
Dir
28/11:30pm 29.5 NNW 25 28 1005.9 - - - - - - - - -
28/11:00pm 29.5 NNW 24 29 1006.3 - - - - - - - - -
28/10:30pm 29.4 NNW 26 30 1006.3 - - - - - - - - -
28/10:00pm 29.6 NNW 27 30 1006.2 - - - - - - - - -
28/09:30pm 29.7 NNW 25 29 1005.9 - - - - - - - - -
28/09:00pm 29.6 NNW 25 29 1005.9 - - - - - - - - -
28/08:30pm 29.7 NNW 24 29 1005.8 - - - - - - - - -
28/08:00pm 29.6 NNW 23 27 1005.2 - - - - - - - - -
28/07:30pm 29.6 NNW 24 28 1004.9 - - - - - - - - -
28/07:00pm 29.7 N 25 28 1004.1 - - - - - - - - -
28/06:30pm 29.8 NNW 23 27 1004.2 - - - - - - - - -
28/06:00pm 29.9 NNW 24 28 1003.7 - - - - - - - - -
28/05:30pm 29.7 NNW 23 27 1003.6 - - - - - - - - -
28/05:00pm 29.7 NNW 26 29 1003.5 - - - - - - - - -
28/04:30pm 29.9 NNW 24 28 1003.1 - - - - - - - - -
28/04:00pm 30.0 NNW 25 29 1002.9 - - - - - - - - -
28/03:30pm 30.1 NNW 25 29 1002.9 - - - - - - - - -
28/03:00pm 30.0 NNW 24 28 1003.0 - - - - - - - - -
28/02:30pm 30.1 NNW 24 28 1003.1 - - - - - - - - -
28/02:00pm 30.0 NW 23 27 1003.6 - - - - - - - - -
28/01:30pm 30.0 NW 23 26 1003.9 - - - - - - - - -
28/01:00pm 29.9 NW 21 25 1004.2 - - - - - - - - -
28/12:30pm 29.9 NW 22 25 1004.4 - - - - - - - - -
28/12:00pm 30.0 NW 23 26 1004.9 - - - - - - - - -
28/11:30am 30.0 NW 22 25 1005.1 - - - - - - - - -
28/11:00am 30.0 NW 23 25 1005.5 - - - - - - - - -

Other Formats:

Comma delimited format used in spreadsheet applications
http://www.bom.gov.au/fwo/IDQ60701/IDQ60701.95288.axf

JavaScript Object Notation format (JSON) in row-major order
http://www.bom.gov.au/fwo/IDQ60701/IDQ60701.95288.json